Time;durP1;ratioP1;P1;durP2;ratioP2;P2;SDS_P1;SDS_P2;PMS_P1;PMS_P2;Temp;Humidity;BMP_temperature;BMP_pressure;BME280_temperature;BME280_humidity;BME280_pressure;Samples;Min_cycle;Max_cycle;Signal;HPM_P1;HPM_P2
2023/01/11 00:01:05;;;;;;;5.22;3.38;;;;;;;;;;5046963;28;20025;-46
2023/01/11 00:03:31;;;;;;;6.72;3.20;;;;;;;;;;5049290;28;20514;-45
2023/01/11 00:05:58;;;;;;;4.53;3.00;;;;;;;;;;5049646;28;20017;-46
2023/01/11 00:08:26;;;;;;;5.45;2.78;;;;;;;;;;5049440;28;20033;-47
2023/01/11 00:10:52;;;;;;;6.53;3.45;;;;;;;;;;5049549;28;21204;-47
2023/01/11 00:13:18;;;;;;;5.50;2.95;;;;;;;;;;5049108;28;20281;-46
2023/01/11 00:15:45;;;;;;;4.88;2.78;;;;;;;;;;5049416;28;20028;-47
2023/01/11 00:18:11;;;;;;;4.63;2.88;;;;;;;;;;5047512;28;20275;-45
2023/01/11 00:20:41;;;;;;;4.70;2.70;;;;;;;;;;5048602;28;20067;-46
2023/01/11 00:23:07;;;;;;;3.33;2.30;;;;;;;;;;5049007;28;20082;-45
2023/01/11 00:25:33;;;;;;;4.63;2.47;;;;;;;;;;5049074;28;20040;-45
2023/01/11 00:28:00;;;;;;;4.53;2.35;;;;;;;;;;5049339;28;20033;-48
2023/01/11 00:30:26;;;;;;;3.78;2.15;;;;;;;;;;5048811;28;20021;-47
2023/01/11 00:32:59;;;;;;;2.97;2.20;;;;;;;;;;5047809;28;20028;-45
2023/01/11 00:35:25;;;;;;;3.67;2.17;;;;;;;;;;5048926;28;20056;-46
2023/01/11 00:37:52;;;;;;;4.00;1.92;;;;;;;;;;5048904;28;20719;-44
2023/01/11 00:40:18;;;;;;;3.92;2.25;;;;;;;;;;5047770;28;20041;-46
2023/01/11 00:48:13;;;;;;;;;;;;;;;;;;5048826;28;20501;-47
2023/01/11 00:50:40;;;;;;;4.88;2.00;;;;;;;;;;5048829;28;19923;-46
2023/01/11 00:53:07;;;;;;;3.10;1.65;;;;;;;;;;5047707;28;20044;-46
2023/01/11 00:55:33;;;;;;;3.65;1.83;;;;;;;;;;5048880;28;20280;-45
2023/01/11 00:57:59;;;;;;;3.83;1.80;;;;;;;;;;5048605;28;20071;-47
2023/01/11 01:00:26;;;;;;;4.07;2.10;;;;;;;;;;5048454;28;20033;-45
2023/01/11 01:02:52;;;;;;;3.53;1.55;;;;;;;;;;5048072;28;20028;-45
2023/01/11 01:05:18;;;;;;;2.40;1.58;;;;;;;;;;5047577;28;20056;-48
2023/01/11 06:12:14;;;;;;;2.35;1.48;;;;;;;;;;5031270;28;20064;-48
2023/01/11 06:14:40;;;;;;;1.88;1.27;;;;;;;;;;5028700;28;20029;-47
2023/01/11 06:17:06;;;;;;;2.20;1.30;;;;;;;;;;5032042;28;20032;-46
2023/01/11 06:19:32;;;;;;;2.40;1.50;;;;;;;;;;5048553;28;20438;-46
2023/01/11 06:21:58;;;;;;;2.90;1.63;;;;;;;;;;5048265;28;20017;-46
2023/01/11 06:24:24;;;;;;;2.00;1.50;;;;;;;;;;5048967;28;20059;-45
2023/01/11 06:26:54;;;;;;;2.67;1.33;;;;;;;;;;5048310;28;20590;-48
2023/01/11 06:29:20;;;;;;;2.03;1.30;;;;;;;;;;5048228;28;20033;-46
2023/01/11 06:31:46;;;;;;;1.70;1.27;;;;;;;;;;5047515;28;20036;-46
2023/01/11 06:34:12;;;;;;;1.92;1.30;;;;;;;;;;5048599;28;20037;-45
2023/01/11 06:36:38;;;;;;;2.78;1.42;;;;;;;;;;5048273;28;20032;-47
2023/01/11 06:39:05;;;;;;;2.50;1.50;;;;;;;;;;5048267;28;20029;-45
2023/01/11 06:41:31;;;;;;;2.20;1.50;;;;;;;;;;5048287;28;20164;-46
2023/01/11 06:43:57;;;;;;;2.05;1.20;;;;;;;;;;5048460;28;20064;-46
2023/01/11 06:46:24;;;;;;;3.20;1.35;;;;;;;;;;5047627;28;20032;-45
2023/01/11 06:48:50;;;;;;;4.22;1.50;;;;;;;;;;5063450;28;20025;-45
2023/01/11 06:51:16;;;;;;;1.67;1.27;;;;;;;;;;5048002;28;20106;-46
2023/01/11 06:53:43;;;;;;;1.85;1.40;;;;;;;;;;5048358;28;20025;-47
2023/01/11 06:56:11;;;;;;;2.13;1.38;;;;;;;;;;5048099;28;20029;-47
2023/01/11 06:58:37;;;;;;;1.88;1.33;;;;;;;;;;5048048;28;20431;-47
2023/01/11 07:01:04;;;;;;;2.70;1.50;;;;;;;;;;5046159;28;20025;-44
2023/01/11 07:03:30;;;;;;;2.03;1.30;;;;;;;;;;5048279;28;20040;-45
2023/01/11 07:05:56;;;;;;;1.83;1.30;;;;;;;;;;5048343;28;20044;-46
2023/01/11 07:08:23;;;;;;;4.00;1.80;;;;;;;;;;5046976;28;20519;-46
2023/01/11 07:10:49;;;;;;;3.05;1.65;;;;;;;;;;5046094;28;20040;-45
2023/01/11 07:13:16;;;;;;;2.70;1.80;;;;;;;;;;5047852;28;20109;-46
2023/01/11 07:15:42;;;;;;;2.28;1.75;;;;;;;;;;5048100;28;20036;-46
2023/01/11 07:18:10;;;;;;;3.15;1.48;;;;;;;;;;5048033;28;20548;-47
2023/01/11 07:20:36;;;;;;;3.70;1.77;;;;;;;;;;5046534;28;20029;-45
2023/01/11 07:23:02;;;;;;;2.10;1.40;;;;;;;;;;5047869;28;20028;-45
2023/01/11 07:25:29;;;;;;;2.30;1.65;;;;;;;;;;5047771;28;20017;-48
2023/01/11 07:27:59;;;;;;;3.42;1.42;;;;;;;;;;5048450;28;20071;-47
2023/01/11 07:30:26;;;;;;;2.53;1.73;;;;;;;;;;5051994;28;20447;-45
2023/01/11 07:32:52;;;;;;;4.35;2.05;;;;;;;;;;5050569;28;20103;-45
2023/01/11 07:35:18;;;;;;;2.33;1.52;;;;;;;;;;5051526;28;20047;-45
2023/01/11 07:37:44;;;;;;;1.85;1.48;;;;;;;;;;5051335;28;20104;-45
2023/01/11 07:40:10;;;;;;;3.17;1.60;;;;;;;;;;5051432;28;20094;-46
2023/01/11 07:45:21;;;;;;;3.22;1.70;;;;;;;;;;5050965;28;20044;-45
2023/01/11 07:47:51;;;;;;;2.30;1.30;;;;;;;;;;5051239;28;20464;-45
2023/01/11 07:50:17;;;;;;;3.72;1.92;;;;;;;;;;5051236;28;20079;-46
2023/01/11 07:52:49;;;;;;;1.50;1.30;;;;;;;;;;5051227;28;20029;-45
2023/01/11 07:55:16;;;;;;;1.90;1.35;;;;;;;;;;5050176;28;20106;-46
2023/01/11 07:57:42;;;;;;;2.03;1.50;;;;;;;;;;5051059;28;20041;-47
2023/01/11 08:00:08;;;;;;;2.97;1.98;;;;;;;;;;5050805;28;20534;-46
2023/01/11 08:02:34;;;;;;;4.68;2.80;;;;;;;;;;5050350;28;20029;-46
2023/01/11 08:05:00;;;;;;;6.82;2.47;;;;;;;;;;5050851;28;20122;-45
2023/01/11 08:07:26;;;;;;;3.75;2.30;;;;;;;;;;5050062;28;20060;-45
2023/01/11 08:09:52;;;;;;;4.05;2.40;;;;;;;;;;5050143;28;20507;-44
2023/01/11 08:15:04;;;;;;;;;;;;;;;;;;5051113;28;20085;-46
2023/01/11 08:17:30;;;;;;;4.18;2.40;;;;;;;;;;5049765;28;19944;-46
2023/01/11 08:19:56;;;;;;;3.08;2.03;;;;;;;;;;5046186;28;20033;-46
2023/01/11 08:22:22;;;;;;;3.50;2.28;;;;;;;;;;5050408;28;20083;-46
2023/01/11 08:24:49;;;;;;;3.45;2.17;;;;;;;;;;5042005;28;20042;-46
2023/01/11 08:27:16;;;;;;;3.50;1.83;;;;;;;;;;5037921;28;20104;-46
2023/01/11 08:29:45;;;;;;;4.18;1.70;;;;;;;;;;5048370;28;20069;-47
2023/01/11 08:32:12;;;;;;;2.88;2.05;;;;;;;;;;5050240;28;20032;-45
2023/01/11 08:34:38;;;;;;;2.97;1.70;;;;;;;;;;5050726;28;20044;-45
2023/01/11 08:37:04;;;;;;;2.38;1.65;;;;;;;;;;5048554;28;20510;-48
2023/01/11 08:39:31;;;;;;;2.85;1.98;;;;;;;;;;5047856;28;20028;-46
2023/01/11 08:41:58;;;;;;;3.40;2.10;;;;;;;;;;5030299;28;20043;-46
2023/01/11 08:44:24;;;;;;;2.53;1.88;;;;;;;;;;5035605;28;20032;-47
2023/01/11 08:46:51;;;;;;;2.67;1.50;;;;;;;;;;5048453;28;20099;-46
2023/01/11 08:49:18;;;;;;;2.30;1.65;;;;;;;;;;5048711;28;20067;-45
2023/01/11 08:51:44;;;;;;;3.10;2.03;;;;;;;;;;5049350;28;20028;-44
2023/01/11 08:54:12;;;;;;;3.38;1.95;;;;;;;;;;5049911;28;20035;-48
2023/01/11 08:56:39;;;;;;;2.05;1.50;;;;;;;;;;5040396;28;20036;-47
2023/01/11 08:59:05;;;;;;;2.45;1.45;;;;;;;;;;5029713;28;20455;-45
2023/01/11 09:01:32;;;;;;;2.85;1.60;;;;;;;;;;5029773;28;20486;-46
2023/01/11 09:03:58;;;;;;;3.28;2.10;;;;;;;;;;5048181;28;20033;-45
2023/01/11 09:06:24;;;;;;;3.70;1.98;;;;;;;;;;5049863;28;20027;-47
2023/01/11 09:08:51;;;;;;;3.30;2.08;;;;;;;;;;5046026;28;20562;-46
2023/01/11 09:14:01;;;;;;;3.28;1.75;;;;;;;;;;5047677;28;20091;-45
2023/01/11 09:16:27;;;;;;;2.40;1.40;;;;;;;;;;5049723;28;20507;-48
2023/01/11 09:18:54;;;;;;;2.50;1.60;;;;;;;;;;5049545;28;20037;-46
2023/01/11 09:21:20;;;;;;;2.92;1.80;;;;;;;;;;5047909;28;20025;-45
2023/01/11 09:23:47;;;;;;;2.10;1.52;;;;;;;;;;5049458;28;20029;-46
2023/01/11 09:26:13;;;;;;;2.58;1.60;;;;;;;;;;5049432;28;20472;-47
2023/01/11 09:28:39;;;;;;;2.55;1.38;;;;;;;;;;5048983;28;20021;-46
2023/01/11 09:31:06;;;;;;;2.78;1.50;;;;;;;;;;5047648;28;20028;-47
2023/01/11 09:33:33;;;;;;;2.95;1.83;;;;;;;;;;5047342;28;20113;-45
2023/01/11 09:36:00;;;;;;;2.28;1.58;;;;;;;;;;5048975;28;20029;-48
2023/01/11 09:38:29;;;;;;;2.55;1.48;;;;;;;;;;5047413;28;20032;-46
2023/01/11 09:41:00;;;;;;;2.55;1.60;;;;;;;;;;5046556;28;20498;-45
2023/01/11 09:43:29;;;;;;;2.80;1.73;;;;;;;;;;5049071;28;20029;-45
2023/01/11 09:45:58;;;;;;;2.47;1.55;;;;;;;;;;5049632;28;20020;-46
2023/01/11 09:48:32;;;;;;;2.60;1.67;;;;;;;;;;5048879;28;20025;-46
2023/01/11 09:50:59;;;;;;;3.33;1.80;;;;;;;;;;5048806;28;20037;-45
2023/01/11 09:53:30;;;;;;;3.90;1.90;;;;;;;;;;5049184;28;20514;-48
2023/01/11 09:55:58;;;;;;;2.92;1.70;;;;;;;;;;5048947;28;20356;-45
2023/01/11 09:58:45;;;;;;;2.45;1.58;;;;;;;;;;5047007;28;20021;-46
2023/01/11 10:01:21;;;;;;;4.15;1.92;;;;;;;;;;5048171;28;20075;-46
2023/01/11 10:03:50;;;;;;;2.97;2.00;;;;;;;;;;5048684;28;20039;-46
2023/01/11 10:06:18;;;;;;;1.67;1.48;;;;;;;;;;5048720;28;20055;-46
2023/01/11 10:09:04;;;;;;;3.72;1.83;;;;;;;;;;5047826;28;20021;-47
2023/01/11 10:11:40;;;;;;;3.60;1.83;;;;;;;;;;5038998;28;20028;-45
2023/01/11 10:14:12;;;;;;;2.42;1.70;;;;;;;;;;5046436;28;20037;-48
2023/01/11 10:16:38;;;;;;;3.47;1.90;;;;;;;;;;5040488;28;20027;-46
2023/01/11 10:19:15;;;;;;;3.10;2.00;;;;;;;;;;5040996;28;20417;-47
2023/01/11 10:21:48;;;;;;;2.22;1.60;;;;;;;;;;5048797;28;20098;-46
2023/01/11 10:24:37;;;;;;;2.78;1.70;;;;;;;;;;5046545;28;20020;-47
2023/01/11 10:27:08;;;;;;;4.07;2.08;;;;;;;;;;5040293;28;20102;-46
2023/01/11 10:29:52;;;;;;;3.50;2.10;;;;;;;;;;5049370;28;20070;-44
2023/01/11 10:32:52;;;;;;;4.97;3.13;;;;;;;;;;5047505;28;20033;-45
2023/01/11 10:41:01;;;;;;;4.20;2.38;;;;;;;;;;5046865;28;20040;-44
2023/01/11 10:43:28;;;;;;;5.57;2.70;;;;;;;;;;5046293;28;20036;-46
2023/01/11 10:45:57;;;;;;;5.30;2.72;;;;;;;;;;5046700;28;20009;-47
2023/01/11 10:48:32;;;;;;;5.28;2.95;;;;;;;;;;5045170;28;20029;-46
2023/01/11 10:51:03;;;;;;;6.03;2.92;;;;;;;;;;5043991;28;20039;-49
2023/01/11 10:53:42;;;;;;;4.57;2.75;;;;;;;;;;5046802;28;20095;-46
2023/01/11 10:56:27;;;;;;;6.15;2.80;;;;;;;;;;5044016;28;20594;-46
2023/01/11 10:59:03;;;;;;;5.18;2.85;;;;;;;;;;5038715;28;20045;-46
2023/01/11 11:01:33;;;;;;;3.92;2.33;;;;;;;;;;5045429;28;20017;-46
2023/01/11 11:04:05;;;;;;;6.53;3.47;;;;;;;;;;5048086;28;20025;-46
2023/01/11 11:06:41;;;;;;;5.95;2.72;;;;;;;;;;5049305;28;20021;-46
2023/01/11 11:09:10;;;;;;;4.50;2.60;;;;;;;;;;5049465;28;20407;-47
2023/01/11 11:11:45;;;;;;;4.85;2.92;;;;;;;;;;5049992;28;20020;-47
2023/01/11 11:14:19;;;;;;;4.50;2.90;;;;;;;;;;5050470;28;20041;-46
2023/01/11 11:16:50;;;;;;;3.20;2.25;;;;;;;;;;5050662;28;20025;-45
2023/01/11 11:19:19;;;;;;;4.00;2.45;;;;;;;;;;5050307;28;20029;-46
2023/01/11 11:21:46;;;;;;;6.97;3.10;;;;;;;;;;5050275;28;20023;-47
2023/01/11 11:24:19;;;;;;;3.65;2.28;;;;;;;;;;5050895;28;20021;-47
2023/01/11 11:26:47;;;;;;;3.58;2.33;;;;;;;;;;5050136;28;20484;-45
2023/01/11 11:29:20;;;;;;;3.00;1.90;;;;;;;;;;5051366;28;20064;-46
2023/01/11 11:31:47;;;;;;;5.53;2.45;;;;;;;;;;5051395;28;20029;-48
2023/01/11 11:34:14;;;;;;;2.83;1.92;;;;;;;;;;5051006;28;20037;-45
2023/01/11 11:36:45;;;;;;;4.90;2.13;;;;;;;;;;5051501;28;20108;-44
2023/01/11 11:39:18;;;;;;;4.25;2.13;;;;;;;;;;5051485;28;20047;-46
2023/01/11 11:41:46;;;;;;;3.58;1.83;;;;;;;;;;5051035;28;20014;-44
2023/01/11 11:44:17;;;;;;;2.28;1.65;;;;;;;;;;5050576;28;20025;-45
2023/01/11 11:46:55;;;;;;;3.80;2.10;;;;;;;;;;5051213;28;20036;-45
2023/01/11 11:49:21;;;;;;;5.78;1.95;;;;;;;;;;5051223;28;20032;-45
2023/01/11 11:51:48;;;;;;;2.75;1.73;;;;;;;;;;5051377;28;20021;-47
2023/01/11 11:54:31;;;;;;;2.72;1.65;;;;;;;;;;5051115;28;20116;-47
2023/01/11 11:56:58;;;;;;;1.98;1.50;;;;;;;;;;5049148;28;20047;-46
2023/01/11 11:59:27;;;;;;;2.90;1.80;;;;;;;;;;5050859;28;20116;-45
2023/01/11 12:02:01;;;;;;;2.90;2.00;;;;;;;;;;5061237;28;20495;-47
2023/01/11 12:04:57;;;;;;;2.72;1.80;;;;;;;;;;5051443;28;20051;-48
2023/01/11 12:07:43;;;;;;;3.33;1.63;;;;;;;;;;5040814;28;20124;-46
2023/01/11 12:10:13;;;;;;;2.05;1.48;;;;;;;;;;5047597;28;20047;-45
2023/01/11 12:12:57;;;;;;;2.05;1.65;;;;;;;;;;5046657;28;20074;-44
2023/01/11 12:15:23;;;;;;;;;;;;;;;;;;5043783;28;20580;-45
2023/01/11 12:17:51;;;;;;;4.10;1.70;;;;;;;;;;5028976;28;20008;-46
2023/01/11 12:20:23;;;;;;;3.42;1.88;;;;;;;;;;5035450;28;20227;-46
2023/01/11 12:23:08;;;;;;;3.42;2.35;;;;;;;;;;5048033;28;20033;-46
2023/01/11 12:25:46;;;;;;;3.33;1.80;;;;;;;;;;5029406;28;20025;-45
2023/01/11 12:28:27;;;;;;;2.65;1.95;;;;;;;;;;5028682;28;20025;-44
2023/01/11 12:30:56;;;;;;;3.75;1.90;;;;;;;;;;5028580;28;20435;-47
2023/01/11 12:33:30;;;;;;;3.10;1.63;;;;;;;;;;5028903;28;20033;-45
2023/01/11 12:35:56;;;;;;;;;;;;;;;;;;5029250;28;20059;-46
2023/01/11 12:38:24;;;;;;;2.40;1.88;;;;;;;;;;5044580;28;19908;-46
2023/01/11 12:41:01;;;;;;;5.22;1.80;;;;;;;;;;5048013;28;20029;-45
2023/01/11 12:43:37;;;;;;;2.63;1.60;;;;;;;;;;5047729;28;20036;-45
2023/01/11 12:46:26;;;;;;;1.75;1.50;;;;;;;;;;5047438;28;20059;-44
2023/01/11 12:49:03;;;;;;;3.42;1.90;;;;;;;;;;5017381;28;20042;-45
2023/01/11 12:51:49;;;;;;;2.30;1.55;;;;;;;;;;5027016;28;20029;-45
2023/01/11 12:54:24;;;;;;;1.90;1.45;;;;;;;;;;5027173;28;20052;-45
2023/01/11 12:56:56;;;;;;;2.75;1.75;;;;;;;;;;5026851;28;20021;-44
2023/01/11 12:59:28;;;;;;;2.38;1.40;;;;;;;;;;5027156;28;20025;-46
2023/01/11 13:01:57;;;;;;;3.95;2.10;;;;;;;;;;5026718;28;20029;-44
2023/01/11 13:04:26;;;;;;;3.45;2.15;;;;;;;;;;5027146;28;20025;-44
2023/01/11 13:06:55;;;;;;;4.03;2.22;;;;;;;;;;5026862;28;20029;-44
2023/01/11 13:09:40;;;;;;;3.33;2.03;;;;;;;;;;5026881;28;20017;-44
2023/01/11 13:12:12;;;;;;;3.42;2.15;;;;;;;;;;5027231;28;20111;-46
2023/01/11 13:14:44;;;;;;;2.80;1.90;;;;;;;;;;5027280;28;20504;-44
2023/01/11 13:17:20;;;;;;;6.68;3.40;;;;;;;;;;5026872;28;20036;-45
2023/01/11 13:20:15;;;;;;;9.55;5.13;;;;;;;;;;5026414;28;20508;-44
2023/01/11 13:22:53;;;;;;;11.45;5.95;;;;;;;;;;5005183;28;20037;-45
2023/01/11 13:25:23;;;;;;;10.27;5.47;;;;;;;;;;5026277;28;20164;-47
2023/01/11 13:27:50;;;;;;;11.20;5.90;;;;;;;;;;5026074;28;20040;-44
2023/01/11 13:30:18;;;;;;;7.60;4.80;;;;;;;;;;5041396;28;20141;-43
2023/01/11 13:32:53;;;;;;;8.02;4.60;;;;;;;;;;5046338;28;20036;-45
2023/01/11 13:35:24;;;;;;;7.13;4.15;;;;;;;;;;5046321;28;20057;-44
2023/01/11 13:38:04;;;;;;;6.38;3.83;;;;;;;;;;5046259;28;20118;-44
2023/01/11 13:40:35;;;;;;;5.60;3.33;;;;;;;;;;5045917;28;20115;-44
2023/01/11 13:43:13;;;;;;;4.53;3.00;;;;;;;;;;5046041;28;20025;-45
2023/01/11 13:45:43;;;;;;;4.32;2.85;;;;;;;;;;5047159;28;20494;-46
2023/01/11 13:48:17;;;;;;;4.80;2.53;;;;;;;;;;5046099;28;20025;-45
2023/01/11 13:50:50;;;;;;;4.00;2.53;;;;;;;;;;5046046;28;20097;-45
2023/01/11 13:53:35;;;;;;;5.10;2.65;;;;;;;;;;5046256;28;20449;-47
2023/01/11 13:56:09;;;;;;;4.25;2.53;;;;;;;;;;5045986;28;20043;-44
2023/01/11 13:58:37;;;;;;;4.80;3.03;;;;;;;;;;5046559;28;20036;-46
2023/01/11 14:01:09;;;;;;;6.47;3.40;;;;;;;;;;5046002;28;20412;-45
2023/01/11 14:03:35;;;;;;;5.97;3.22;;;;;;;;;;5047560;28;20071;-46
2023/01/11 14:06:04;;;;;;;7.22;3.50;;;;;;;;;;5044628;28;20428;-46
2023/01/11 14:08:30;;;;;;;7.63;3.20;;;;;;;;;;5045794;28;20075;-45
2023/01/11 14:11:10;;;;;;;5.18;2.95;;;;;;;;;;5044162;28;20021;-45
2023/01/11 14:16:33;;;;;;;5.47;2.50;;;;;;;;;;5044985;28;20581;-44
2023/01/11 14:18:59;;;;;;;3.83;2.25;;;;;;;;;;5045053;28;20128;-46
2023/01/11 14:21:29;;;;;;;2.95;2.25;;;;;;;;;;5045396;28;20112;-46
2023/01/11 14:23:56;;;;;;;4.22;2.20;;;;;;;;;;5045023;28;20021;-45
2023/01/11 14:26:25;;;;;;;3.13;1.80;;;;;;;;;;5042651;28;20650;-44
2023/01/11 14:28:52;;;;;;;2.78;1.95;;;;;;;;;;5045803;28;20024;-45
2023/01/11 14:31:37;;;;;;;4.57;2.13;;;;;;;;;;5045842;28;20033;-44
2023/01/11 14:34:18;;;;;;;2.80;2.00;;;;;;;;;;5045542;28;20056;-45
2023/01/11 14:36:44;;;;;;;3.38;1.80;;;;;;;;;;5045346;28;20507;-44
2023/01/11 14:39:13;;;;;;;3.50;1.90;;;;;;;;;;5044179;28;20056;-44
2023/01/11 14:41:47;;;;;;;2.38;1.90;;;;;;;;;;5042794;28;20037;-44
2023/01/11 14:44:22;;;;;;;2.72;1.90;;;;;;;;;;5039936;28;20048;-44
2023/01/11 14:46:54;;;;;;;3.05;1.77;;;;;;;;;;5045051;28;20032;-45
2023/01/11 14:49:26;;;;;;;3.00;1.80;;;;;;;;;;5046524;28;20028;-45
2023/01/11 14:52:13;;;;;;;3.45;2.20;;;;;;;;;;5046508;28;20109;-45
2023/01/11 14:54:42;;;;;;;3.40;1.85;;;;;;;;;;5043787;28;20060;-45
2023/01/11 14:57:27;;;;;;;3.15;2.00;;;;;;;;;;5046166;28;20033;-44
2023/01/11 14:59:53;;;;;;;3.58;2.22;;;;;;;;;;5045526;28;20032;-43
2023/01/11 15:02:26;;;;;;;3.08;2.30;;;;;;;;;;5027613;28;20038;-44
2023/01/11 15:04:55;;;;;;;5.68;2.63;;;;;;;;;;5046643;28;20025;-43
2023/01/11 15:07:30;;;;;;;4.43;2.58;;;;;;;;;;5046721;28;20136;-45
2023/01/11 15:10:03;;;;;;;4.03;2.63;;;;;;;;;;5045777;28;20025;-46
2023/01/11 15:12:36;;;;;;;3.53;2.60;;;;;;;;;;5045471;28;20032;-45
2023/01/11 15:15:07;;;;;;;3.22;2.58;;;;;;;;;;5044398;28;20595;-47
2023/01/11 15:20:22;;;;;;;4.25;2.45;;;;;;;;;;5045392;28;20087;-47
2023/01/11 15:22:58;;;;;;;4.65;2.15;;;;;;;;;;5043374;28;20565;-46
2023/01/11 15:25:31;;;;;;;4.22;2.22;;;;;;;;;;5044183;28;20075;-45
2023/01/11 15:28:00;;;;;;;3.90;2.80;;;;;;;;;;5044764;28;20412;-45
2023/01/11 15:30:29;;;;;;;3.33;2.30;;;;;;;;;;5042852;28;20499;-44
2023/01/11 15:33:13;;;;;;;2.88;2.15;;;;;;;;;;5044965;28;20041;-44
2023/01/11 15:35:41;;;;;;;3.22;2.22;;;;;;;;;;5042642;28;20136;-44
2023/01/11 15:38:14;;;;;;;4.32;2.25;;;;;;;;;;5041640;28;20029;-45
2023/01/11 15:40:41;;;;;;;4.20;2.70;;;;;;;;;;5044614;28;20108;-45
2023/01/11 15:43:20;;;;;;;3.70;2.58;;;;;;;;;;5043060;28;20039;-45
2023/01/11 15:48:31;;;;;;;;;;;;;;;;;;5045244;28;20079;-46
2023/01/11 15:51:17;;;;;;;2.60;1.95;;;;;;;;;;5027178;28;20315;-45
2023/01/11 15:53:43;;;;;;;3.63;2.42;;;;;;;;;;5036792;28;20738;-45
2023/01/11 15:56:27;;;;;;;4.65;2.70;;;;;;;;;;5047139;28;20033;-46
2023/01/11 15:59:02;;;;;;;4.53;3.13;;;;;;;;;;5047532;28;20159;-46
2023/01/11 16:01:29;;;;;;;5.22;3.20;;;;;;;;;;5045328;28;20033;-45
2023/01/11 16:03:58;;;;;;;4.97;3.50;;;;;;;;;;5037976;28;20032;-45
2023/01/11 16:06:36;;;;;;;4.40;2.97;;;;;;;;;;5047949;28;20036;-46
2023/01/11 16:09:21;;;;;;;6.13;3.50;;;;;;;;;;5038051;28;20021;-45
2023/01/11 16:11:53;;;;;;;4.05;3.08;;;;;;;;;;5041516;28;20052;-46
2023/01/11 16:14:19;;;;;;;5.40;3.25;;;;;;;;;;5046827;28;20040;-45
2023/01/11 16:16:54;;;;;;;5.30;3.03;;;;;;;;;;5047799;28;20112;-45
2023/01/11 16:19:20;;;;;;;7.10;3.67;;;;;;;;;;5047470;28;20033;-45
2023/01/11 16:21:48;;;;;;;4.95;3.28;;;;;;;;;;5029912;28;20446;-46
2023/01/11 16:24:19;;;;;;;6.47;3.72;;;;;;;;;;5047591;28;20017;-46
2023/01/11 16:26:49;;;;;;;6.38;3.42;;;;;;;;;;5046689;28;20024;-45
2023/01/11 16:29:20;;;;;;;4.30;3.00;;;;;;;;;;5043860;28;20029;-45
2023/01/11 16:31:55;;;;;;;4.60;3.17;;;;;;;;;;5036686;28;20033;-45
2023/01/11 16:34:21;;;;;;;4.60;3.20;;;;;;;;;;5047468;28;20056;-46
2023/01/11 16:36:48;;;;;;;7.53;3.40;;;;;;;;;;5046897;28;20632;-45
2023/01/11 16:39:16;;;;;;;5.30;3.22;;;;;;;;;;5045708;28;20031;-45
2023/01/11 16:42:02;;;;;;;4.90;3.47;;;;;;;;;;5047922;28;20384;-45
2023/01/11 16:44:34;;;;;;;4.38;2.90;;;;;;;;;;5047155;28;20025;-44
2023/01/11 16:47:14;;;;;;;5.57;3.45;;;;;;;;;;5046297;28;20029;-45
2023/01/11 16:49:41;;;;;;;5.97;3.42;;;;;;;;;;5045706;28;20033;-44
2023/01/11 16:52:26;;;;;;;5.18;3.50;;;;;;;;;;5046578;28;20048;-45
2023/01/11 16:54:57;;;;;;;6.85;4.72;;;;;;;;;;5044176;28;20063;-47
2023/01/11 16:57:30;;;;;;;9.80;5.60;;;;;;;;;;5046636;28;20526;-45
2023/01/11 17:00:00;;;;;;;7.93;4.55;;;;;;;;;;5039928;28;20040;-46
2023/01/11 17:02:30;;;;;;;7.38;4.40;;;;;;;;;;5025638;28;20400;-45
2023/01/11 17:04:57;;;;;;;6.78;4.28;;;;;;;;;;5034941;28;20024;-46
2023/01/11 17:07:24;;;;;;;6.45;4.28;;;;;;;;;;5047374;28;20040;-44
2023/01/11 17:09:50;;;;;;;8.57;4.78;;;;;;;;;;5046377;28;20084;-44
2023/01/11 17:12:18;;;;;;;8.38;5.53;;;;;;;;;;5044494;28;20033;-46
2023/01/11 17:15:04;;;;;;;8.30;5.15;;;;;;;;;;5045284;28;20033;-45
2023/01/11 17:17:34;;;;;;;8.15;5.40;;;;;;;;;;5045728;28;20190;-45
2023/01/11 17:20:01;;;;;;;8.13;4.97;;;;;;;;;;5045120;28;20581;-46
2023/01/11 17:22:31;;;;;;;9.48;5.78;;;;;;;;;;5045923;28;20090;-45
2023/01/11 17:25:02;;;;;;;8.82;5.50;;;;;;;;;;5045188;28;20412;-45
2023/01/11 17:27:28;;;;;;;9.38;5.35;;;;;;;;;;5047316;28;20036;-45
2023/01/11 17:29:56;;;;;;;10.10;5.40;;;;;;;;;;5044693;28;20024;-44
2023/01/11 17:32:40;;;;;;;8.13;5.07;;;;;;;;;;5042820;28;20453;-45
2023/01/11 17:35:13;;;;;;;10.18;5.78;;;;;;;;;;5045003;28;20052;-45
2023/01/11 17:37:41;;;;;;;12.57;7.35;;;;;;;;;;5044492;28;20056;-48
2023/01/11 17:40:17;;;;;;;11.90;6.63;;;;;;;;;;5025547;28;20582;-46
2023/01/11 17:45:46;;;;;;;12.35;7.28;;;;;;;;;;5013874;28;20131;-46
2023/01/11 17:48:14;;;;;;;12.18;7.53;;;;;;;;;;5042528;28;20033;-46
2023/01/11 17:50:48;;;;;;;11.80;7.05;;;;;;;;;;5036232;28;20033;-45
2023/01/11 17:53:16;;;;;;;13.27;8.10;;;;;;;;;;5038624;28;20029;-45
2023/01/11 17:55:52;;;;;;;14.77;7.97;;;;;;;;;;5028415;28;20163;-46
2023/01/11 17:58:21;;;;;;;11.90;7.35;;;;;;;;;;5038552;28;20499;-46
2023/01/11 18:01:07;;;;;;;10.90;7.25;;;;;;;;;;5045868;28;20389;-45
2023/01/11 18:03:39;;;;;;;12.45;7.13;;;;;;;;;;5043134;28;20033;-45
2023/01/11 18:06:10;;;;;;;12.68;7.63;;;;;;;;;;5025429;28;20370;-45
2023/01/11 18:08:36;;;;;;;9.82;6.28;;;;;;;;;;5037317;28;20735;-45
2023/01/11 18:11:02;;;;;;;8.63;5.75;;;;;;;;;;5043484;28;20107;-46
2023/01/11 18:13:30;;;;;;;7.90;5.50;;;;;;;;;;5042777;28;20040;-46
2023/01/11 18:15:57;;;;;;;8.70;5.28;;;;;;;;;;5043504;28;20499;-47
2023/01/11 18:18:46;;;;;;;9.00;5.35;;;;;;;;;;5044149;28;20017;-45
2023/01/11 18:21:25;;;;;;;8.77;4.85;;;;;;;;;;5033332;28;20238;-45
2023/01/11 18:24:13;;;;;;;10.23;5.93;;;;;;;;;;5043760;28;20107;-46
2023/01/11 18:26:44;;;;;;;10.60;6.40;;;;;;;;;;5026456;28;20188;-45
2023/01/11 18:29:30;;;;;;;11.38;6.75;;;;;;;;;;5044759;28;20040;-45
2023/01/11 18:31:57;;;;;;;10.75;6.38;;;;;;;;;;5042524;28;20043;-45
2023/01/11 18:34:23;;;;;;;10.82;6.63;;;;;;;;;;5044351;28;20029;-46
2023/01/11 18:36:49;;;;;;;11.27;6.97;;;;;;;;;;5041947;28;20047;-46
2023/01/11 18:39:15;;;;;;;11.35;6.40;;;;;;;;;;5044412;28;20048;-45
2023/01/11 18:44:27;;;;;;;7.57;5.53;;;;;;;;;;5044840;28;20082;-45
2023/01/11 18:46:53;;;;;;;7.85;5.65;;;;;;;;;;5045555;28;20021;-45
2023/01/11 18:49:19;;;;;;;9.88;6.03;;;;;;;;;;5042566;28;20036;-46
2023/01/11 18:51:45;;;;;;;8.68;5.28;;;;;;;;;;5043430;28;20108;-46
2023/01/11 18:54:15;;;;;;;7.90;4.68;;;;;;;;;;5039417;28;20160;-46
2023/01/11 18:56:42;;;;;;;7.25;4.75;;;;;;;;;;5043226;28;20063;-46
2023/01/11 18:59:08;;;;;;;8.02;4.82;;;;;;;;;;5041368;28;20603;-46
2023/01/11 19:01:34;;;;;;;6.07;4.40;;;;;;;;;;5043003;28;20025;-45
2023/01/11 19:04:01;;;;;;;7.05;4.82;;;;;;;;;;5042397;28;20021;-45
2023/01/11 19:06:27;;;;;;;6.60;4.20;;;;;;;;;;5042558;28;20564;-45
2023/01/11 19:08:53;;;;;;;6.50;4.60;;;;;;;;;;5040850;28;20021;-46
2023/01/11 19:11:19;;;;;;;6.30;4.25;;;;;;;;;;5031827;28;20118;-45
2023/01/11 19:13:45;;;;;;;4.25;3.85;;;;;;;;;;5040649;28;20119;-45
2023/01/11 19:16:11;;;;;;;5.68;4.30;;;;;;;;;;5043169;28;20094;-46
2023/01/11 19:18:37;;;;;;;6.10;4.13;;;;;;;;;;5043004;28;20028;-44
2023/01/11 19:21:09;;;;;;;5.43;4.00;;;;;;;;;;5040573;28;20035;-46
2023/01/11 19:23:35;;;;;;;5.25;3.72;;;;;;;;;;5043359;28;20029;-45
2023/01/11 19:26:02;;;;;;;5.20;3.60;;;;;;;;;;5046773;28;20336;-46
2023/01/11 19:28:28;;;;;;;5.68;3.88;;;;;;;;;;5046365;28;20029;-45
2023/01/11 19:30:54;;;;;;;6.00;4.18;;;;;;;;;;5043332;28;20110;-46
2023/01/11 19:33:20;;;;;;;7.50;4.35;;;;;;;;;;5046508;28;20488;-46
2023/01/11 19:35:48;;;;;;;8.18;5.20;;;;;;;;;;5046243;28;20044;-45
2023/01/11 19:38:17;;;;;;;10.63;6.85;;;;;;;;;;5028922;28;20123;-43
2023/01/11 19:40:43;;;;;;;12.90;7.47;;;;;;;;;;5046577;28;20039;-43
2023/01/11 19:43:09;;;;;;;11.10;6.90;;;;;;;;;;5045465;28;20024;-43
2023/01/11 19:45:35;;;;;;;8.88;5.60;;;;;;;;;;5047262;28;20408;-44
2023/01/11 19:48:03;;;;;;;8.80;5.38;;;;;;;;;;5046677;28;20025;-44
2023/01/11 19:50:29;;;;;;;8.55;5.10;;;;;;;;;;5046357;28;20033;-44
2023/01/11 19:52:55;;;;;;;6.68;4.85;;;;;;;;;;5046719;28;20487;-44
2023/01/11 19:55:21;;;;;;;8.85;5.60;;;;;;;;;;5045646;28;20446;-45
2023/01/11 19:57:47;;;;;;;8.93;5.65;;;;;;;;;;5046349;28;20031;-46
2023/01/11 20:00:13;;;;;;;9.80;5.38;;;;;;;;;;5046397;28;20036;-44
2023/01/11 20:02:39;;;;;;;8.50;5.00;;;;;;;;;;5044643;28;20040;-43
2023/01/11 20:05:07;;;;;;;5.85;4.03;;;;;;;;;;5047391;28;20029;-46
2023/01/11 20:07:33;;;;;;;7.45;4.80;;;;;;;;;;5045830;28;20411;-44
2023/01/11 20:09:59;;;;;;;7.72;4.65;;;;;;;;;;5045305;28;20041;-47
2023/01/11 20:12:25;;;;;;;5.90;4.45;;;;;;;;;;5036879;28;20451;-44
2023/01/11 20:14:53;;;;;;;5.75;4.35;;;;;;;;;;5028554;28;20029;-46
2023/01/11 20:17:20;;;;;;;6.18;4.18;;;;;;;;;;5046184;28;20033;-44
2023/01/11 20:19:53;;;;;;;7.80;4.55;;;;;;;;;;5045942;28;20021;-44
2023/01/11 20:22:19;;;;;;;9.13;5.10;;;;;;;;;;5045545;28;20526;-44
2023/01/11 20:24:45;;;;;;;11.23;6.53;;;;;;;;;;5028293;28;20025;-43
2023/01/11 20:27:10;;;;;;;12.00;6.93;;;;;;;;;;5045131;28;20029;-47
2023/01/11 20:29:36;;;;;;;16.20;9.38;;;;;;;;;;5046849;28;20040;-44
2023/01/11 20:32:02;;;;;;;21.08;11.75;;;;;;;;;;5045264;28;20035;-45
2023/01/11 20:34:28;;;;;;;23.55;13.27;;;;;;;;;;5045144;28;20090;-45
2023/01/11 20:36:54;;;;;;;20.88;11.85;;;;;;;;;;5037388;28;20520;-44
2023/01/11 20:39:20;;;;;;;20.45;12.27;;;;;;;;;;5044686;28;20025;-44